sensor_id;sensor_type;location;lat;lon;timestamp;P1;durP1;ratioP1;P2;durP2;ratioP2
14326;SDS011;7247;53.330;-1.180;2022-09-20T00:01:02;16.87;;;13.60;;
14326;SDS011;7247;53.330;-1.180;2022-09-20T00:03:28;17.70;;;13.27;;
14326;SDS011;7247;53.330;-1.180;2022-09-20T00:05:59;18.63;;;13.97;;
14326;SDS011;7247;53.330;-1.180;2022-09-20T00:08:25;15.43;;;13.13;;
14326;SDS011;7247;53.330;-1.180;2022-09-20T00:10:58;15.30;;;12.57;;
14326;SDS011;7247;53.330;-1.180;2022-09-20T00:13:25;17.23;;;13.33;;
14326;SDS011;7247;53.330;-1.180;2022-09-20T00:15:52;17.10;;;13.13;;
14326;SDS011;7247;53.330;-1.180;2022-09-20T00:18:18;15.87;;;13.13;;
14326;SDS011;7247;53.330;-1.180;2022-09-20T00:20:45;15.87;;;12.87;;
14326;SDS011;7247;53.330;-1.180;2022-09-20T00:23:12;14.93;;;12.27;;
14326;SDS011;7247;53.330;-1.180;2022-09-20T00:25:39;16.17;;;13.30;;
14326;SDS011;7247;53.330;-1.180;2022-09-20T00:28:07;14.30;;;11.47;;
14326;SDS011;7247;53.330;-1.180;2022-09-20T00:30:35;15.37;;;12.50;;
14326;SDS011;7247;53.330;-1.180;2022-09-20T00:33:01;14.17;;;12.10;;
14326;SDS011;7247;53.330;-1.180;2022-09-20T00:35:28;16.97;;;13.30;;
14326;SDS011;7247;53.330;-1.180;2022-09-20T00:37:53;14.77;;;11.90;;
14326;SDS011;7247;53.330;-1.180;2022-09-20T00:40:21;16.13;;;12.60;;
14326;SDS011;7247;53.330;-1.180;2022-09-20T00:42:47;15.83;;;12.43;;
14326;SDS011;7247;53.330;-1.180;2022-09-20T00:45:18;17.27;;;12.73;;
14326;SDS011;7247;53.330;-1.180;2022-09-20T00:47:46;17.47;;;12.73;;
14326;SDS011;7247;53.330;-1.180;2022-09-20T00:50:18;13.73;;;12.00;;
14326;SDS011;7247;53.330;-1.180;2022-09-20T00:52:48;13.87;;;11.37;;
14326;SDS011;7247;53.330;-1.180;2022-09-20T00:55:15;16.00;;;12.77;;
14326;SDS011;7247;53.330;-1.180;2022-09-20T00:57:42;16.57;;;13.23;;
14326;SDS011;7247;53.330;-1.180;2022-09-20T01:00:10;10.67;;;9.03;;
14326;SDS011;7247;53.330;-1.180;2022-09-20T01:02:40;11.27;;;8.83;;
14326;SDS011;7247;53.330;-1.180;2022-09-20T01:05:07;9.17;;;7.50;;
14326;SDS011;7247;53.330;-1.180;2022-09-20T01:10:20;7.40;;;6.17;;
14326;SDS011;7247;53.330;-1.180;2022-09-20T01:12:46;6.77;;;4.80;;
14326;SDS011;7247;53.330;-1.180;2022-09-20T01:15:14;8.30;;;5.53;;
14326;SDS011;7247;53.330;-1.180;2022-09-20T01:17:44;7.40;;;4.67;;
14326;SDS011;7247;53.330;-1.180;2022-09-20T01:20:13;5.87;;;4.70;;
14326;SDS011;7247;53.330;-1.180;2022-09-20T01:22:43;5.30;;;4.37;;
14326;SDS011;7247;53.330;-1.180;2022-09-20T01:25:13;5.87;;;4.80;;
14326;SDS011;7247;53.330;-1.180;2022-09-20T01:27:43;6.27;;;5.30;;
14326;SDS011;7247;53.330;-1.180;2022-09-20T01:30:11;6.43;;;5.10;;
14326;SDS011;7247;53.330;-1.180;2022-09-20T01:32:44;6.47;;;5.53;;
14326;SDS011;7247;53.330;-1.180;2022-09-20T01:35:12;5.97;;;5.30;;
14326;SDS011;7247;53.330;-1.180;2022-09-20T01:37:44;5.90;;;5.30;;
14326;SDS011;7247;53.330;-1.180;2022-09-20T01:40:15;5.63;;;4.90;;
14326;SDS011;7247;53.330;-1.180;2022-09-20T01:42:48;5.57;;;4.90;;
14326;SDS011;7247;53.330;-1.180;2022-09-20T01:45:17;5.93;;;5.13;;
14326;SDS011;7247;53.330;-1.180;2022-09-20T01:47:49;6.90;;;5.23;;
14326;SDS011;7247;53.330;-1.180;2022-09-20T01:50:21;5.37;;;4.47;;
14326;SDS011;7247;53.330;-1.180;2022-09-20T02:01:22;5.60;;;4.70;;
14326;SDS011;7247;53.330;-1.180;2022-09-20T02:03:56;5.73;;;4.57;;
14326;SDS011;7247;53.330;-1.180;2022-09-20T02:06:36;5.13;;;4.63;;
14326;SDS011;7247;53.330;-1.180;2022-09-20T02:09:12;5.33;;;4.80;;
14326;SDS011;7247;53.330;-1.180;2022-09-20T02:11:43;5.37;;;4.70;;
14326;SDS011;7247;53.330;-1.180;2022-09-20T02:14:20;7.03;;;4.90;;
14326;SDS011;7247;53.330;-1.180;2022-09-20T02:16:54;5.87;;;4.67;;
14326;SDS011;7247;53.330;-1.180;2022-09-20T02:19:32;5.83;;;4.73;;
14326;SDS011;7247;53.330;-1.180;2022-09-20T02:22:08;5.20;;;4.70;;
14326;SDS011;7247;53.330;-1.180;2022-09-20T02:24:37;6.63;;;4.87;;
14326;SDS011;7247;53.330;-1.180;2022-09-20T02:29:56;7.20;;;5.43;;
14326;SDS011;7247;53.330;-1.180;2022-09-20T02:32:34;6.50;;;5.37;;
14326;SDS011;7247;53.330;-1.180;2022-09-20T02:35:11;7.13;;;4.53;;
14326;SDS011;7247;53.330;-1.180;2022-09-20T02:37:46;5.20;;;4.70;;
14326;SDS011;7247;53.330;-1.180;2022-09-20T02:40:18;6.40;;;5.40;;
14326;SDS011;7247;53.330;-1.180;2022-09-20T02:42:46;7.57;;;5.20;;
14326;SDS011;7247;53.330;-1.180;2022-09-20T02:45:17;5.93;;;5.07;;
14326;SDS011;7247;53.330;-1.180;2022-09-20T02:47:47;7.97;;;5.00;;
14326;SDS011;7247;53.330;-1.180;2022-09-20T02:50:17;7.20;;;4.70;;
14326;SDS011;7247;53.330;-1.180;2022-09-20T02:52:50;5.70;;;4.57;;
14326;SDS011;7247;53.330;-1.180;2022-09-20T02:55:20;5.90;;;4.87;;
14326;SDS011;7247;53.330;-1.180;2022-09-20T02:57:52;7.30;;;4.70;;
14326;SDS011;7247;53.330;-1.180;2022-09-20T03:00:22;5.60;;;4.80;;
14326;SDS011;7247;53.330;-1.180;2022-09-20T03:02:54;6.90;;;4.80;;
14326;SDS011;7247;53.330;-1.180;2022-09-20T03:05:26;5.70;;;4.80;;
14326;SDS011;7247;53.330;-1.180;2022-09-20T03:08:03;5.97;;;4.93;;
14326;SDS011;7247;53.330;-1.180;2022-09-20T03:10:36;5.30;;;4.80;;
14326;SDS011;7247;53.330;-1.180;2022-09-20T03:13:10;5.90;;;5.20;;
14326;SDS011;7247;53.330;-1.180;2022-09-20T03:15:40;6.70;;;4.90;;
14326;SDS011;7247;53.330;-1.180;2022-09-20T03:18:10;6.27;;;4.83;;
14326;SDS011;7247;53.330;-1.180;2022-09-20T03:20:40;5.60;;;4.70;;
14326;SDS011;7247;53.330;-1.180;2022-09-20T03:23:09;4.93;;;4.43;;
14326;SDS011;7247;53.330;-1.180;2022-09-20T03:25:46;5.83;;;5.23;;
14326;SDS011;7247;53.330;-1.180;2022-09-20T03:28:21;5.60;;;4.73;;
14326;SDS011;7247;53.330;-1.180;2022-09-20T03:30:53;5.07;;;4.63;;
14326;SDS011;7247;53.330;-1.180;2022-09-20T03:33:25;7.13;;;5.20;;
14326;SDS011;7247;53.330;-1.180;2022-09-20T03:35:57;6.80;;;5.57;;
14326;SDS011;7247;53.330;-1.180;2022-09-20T03:38:30;6.10;;;5.47;;
14326;SDS011;7247;53.330;-1.180;2022-09-20T03:41:09;6.87;;;5.67;;
14326;SDS011;7247;53.330;-1.180;2022-09-20T03:43:47;6.70;;;5.10;;
14326;SDS011;7247;53.330;-1.180;2022-09-20T03:46:18;5.80;;;5.20;;
14326;SDS011;7247;53.330;-1.180;2022-09-20T03:48:59;6.20;;;5.30;;
14326;SDS011;7247;53.330;-1.180;2022-09-20T03:51:28;6.13;;;5.10;;
14326;SDS011;7247;53.330;-1.180;2022-09-20T03:59:47;5.57;;;4.77;;
14326;SDS011;7247;53.330;-1.180;2022-09-20T04:05:04;5.27;;;4.70;;
14326;SDS011;7247;53.330;-1.180;2022-09-20T04:07:33;6.03;;;4.60;;
14326;SDS011;7247;53.330;-1.180;2022-09-20T04:10:10;4.87;;;4.33;;
14326;SDS011;7247;53.330;-1.180;2022-09-20T04:12:43;5.33;;;4.83;;
14326;SDS011;7247;53.330;-1.180;2022-09-20T04:15:16;7.03;;;5.07;;
14326;SDS011;7247;53.330;-1.180;2022-09-20T04:17:46;5.53;;;4.93;;
14326;SDS011;7247;53.330;-1.180;2022-09-20T04:20:18;5.60;;;4.90;;
14326;SDS011;7247;53.330;-1.180;2022-09-20T04:22:45;6.77;;;5.03;;
14326;SDS011;7247;53.330;-1.180;2022-09-20T04:25:17;5.70;;;5.00;;
14326;SDS011;7247;53.330;-1.180;2022-09-20T04:27:46;5.63;;;5.03;;
14326;SDS011;7247;53.330;-1.180;2022-09-20T04:30:15;6.80;;;5.50;;
14326;SDS011;7247;53.330;-1.180;2022-09-20T04:32:45;7.13;;;4.53;;
14326;SDS011;7247;53.330;-1.180;2022-09-20T04:35:16;5.37;;;4.87;;
14326;SDS011;7247;53.330;-1.180;2022-09-20T04:38:08;6.20;;;4.80;;
14326;SDS011;7247;53.330;-1.180;2022-09-20T04:40:39;6.77;;;5.13;;
14326;SDS011;7247;53.330;-1.180;2022-09-20T04:43:15;6.90;;;5.03;;
14326;SDS011;7247;53.330;-1.180;2022-09-20T04:54:21;5.50;;;4.37;;
14326;SDS011;7247;53.330;-1.180;2022-09-20T04:57:00;4.97;;;4.20;;
14326;SDS011;7247;53.330;-1.180;2022-09-20T04:59:33;4.83;;;4.20;;
14326;SDS011;7247;53.330;-1.180;2022-09-20T05:02:17;5.53;;;4.37;;
14326;SDS011;7247;53.330;-1.180;2022-09-20T05:13:16;5.57;;;3.73;;
14326;SDS011;7247;53.330;-1.180;2022-09-20T05:15:50;4.47;;;3.90;;
14326;SDS011;7247;53.330;-1.180;2022-09-20T05:18:26;5.70;;;4.20;;
14326;SDS011;7247;53.330;-1.180;2022-09-20T05:21:11;5.33;;;3.90;;
14326;SDS011;7247;53.330;-1.180;2022-09-20T05:23:44;6.57;;;4.53;;
14326;SDS011;7247;53.330;-1.180;2022-09-20T05:26:13;6.20;;;3.63;;
14326;SDS011;7247;53.330;-1.180;2022-09-20T05:28:51;6.03;;;4.17;;
14326;SDS011;7247;53.330;-1.180;2022-09-20T05:31:23;4.93;;;4.37;;
14326;SDS011;7247;53.330;-1.180;2022-09-20T05:33:53;4.63;;;4.10;;
14326;SDS011;7247;53.330;-1.180;2022-09-20T05:36:26;5.10;;;4.60;;
14326;SDS011;7247;53.330;-1.180;2022-09-20T05:38:55;7.30;;;4.40;;
14326;SDS011;7247;53.330;-1.180;2022-09-20T05:41:27;5.73;;;4.87;;
14326;SDS011;7247;53.330;-1.180;2022-09-20T05:44:00;6.63;;;4.50;;
14326;SDS011;7247;53.330;-1.180;2022-09-20T05:46:34;6.13;;;4.50;;
14326;SDS011;7247;53.330;-1.180;2022-09-20T05:49:05;5.23;;;4.73;;
14326;SDS011;7247;53.330;-1.180;2022-09-20T05:51:41;6.10;;;5.10;;
14326;SDS011;7247;53.330;-1.180;2022-09-20T05:54:23;5.93;;;4.60;;
14326;SDS011;7247;53.330;-1.180;2022-09-20T05:56:54;5.87;;;5.27;;
14326;SDS011;7247;53.330;-1.180;2022-09-20T05:59:40;5.20;;;4.67;;
14326;SDS011;7247;53.330;-1.180;2022-09-20T06:02:17;5.47;;;4.60;;
14326;SDS011;7247;53.330;-1.180;2022-09-20T06:04:48;6.37;;;5.00;;
14326;SDS011;7247;53.330;-1.180;2022-09-20T06:07:20;6.10;;;5.20;;
14326;SDS011;7247;53.330;-1.180;2022-09-20T06:12:41;8.50;;;4.80;;
14326;SDS011;7247;53.330;-1.180;2022-09-20T06:15:12;6.80;;;5.30;;
14326;SDS011;7247;53.330;-1.180;2022-09-20T06:17:42;6.73;;;5.30;;
14326;SDS011;7247;53.330;-1.180;2022-09-20T06:20:15;8.10;;;5.27;;
14326;SDS011;7247;53.330;-1.180;2022-09-20T06:22:43;6.73;;;5.10;;
14326;SDS011;7247;53.330;-1.180;2022-09-20T06:25:14;5.87;;;4.80;;
14326;SDS011;7247;53.330;-1.180;2022-09-20T06:27:42;7.63;;;5.40;;
14326;SDS011;7247;53.330;-1.180;2022-09-20T06:30:13;6.93;;;5.23;;
14326;SDS011;7247;53.330;-1.180;2022-09-20T06:32:51;5.67;;;5.07;;
14326;SDS011;7247;53.330;-1.180;2022-09-20T06:35:18;7.97;;;4.77;;
14326;SDS011;7247;53.330;-1.180;2022-09-20T06:37:46;6.43;;;4.70;;
14326;SDS011;7247;53.330;-1.180;2022-09-20T06:40:36;5.77;;;4.57;;
14326;SDS011;7247;53.330;-1.180;2022-09-20T06:43:21;6.27;;;4.73;;
14326;SDS011;7247;53.330;-1.180;2022-09-20T06:45:50;5.30;;;4.80;;
14326;SDS011;7247;53.330;-1.180;2022-09-20T06:48:17;6.97;;;5.10;;
14326;SDS011;7247;53.330;-1.180;2022-09-20T06:50:43;7.03;;;4.67;;
14326;SDS011;7247;53.330;-1.180;2022-09-20T06:53:12;6.17;;;4.63;;
14326;SDS011;7247;53.330;-1.180;2022-09-20T06:55:40;5.43;;;4.33;;
14326;SDS011;7247;53.330;-1.180;2022-09-20T06:58:08;5.20;;;4.57;;
14326;SDS011;7247;53.330;-1.180;2022-09-20T07:00:35;5.57;;;3.83;;
14326;SDS011;7247;53.330;-1.180;2022-09-20T07:03:05;5.77;;;4.43;;
14326;SDS011;7247;53.330;-1.180;2022-09-20T07:05:32;6.10;;;4.30;;
14326;SDS011;7247;53.330;-1.180;2022-09-20T07:08:00;5.53;;;4.47;;
14326;SDS011;7247;53.330;-1.180;2022-09-20T07:10:28;5.90;;;4.90;;
14326;SDS011;7247;53.330;-1.180;2022-09-20T07:12:55;5.27;;;4.10;;
14326;SDS011;7247;53.330;-1.180;2022-09-20T07:15:24;5.40;;;4.20;;
14326;SDS011;7247;53.330;-1.180;2022-09-20T07:17:53;5.70;;;3.80;;
14326;SDS011;7247;53.330;-1.180;2022-09-20T07:20:21;5.57;;;4.47;;
14326;SDS011;7247;53.330;-1.180;2022-09-20T07:22:48;6.17;;;4.50;;
14326;SDS011;7247;53.330;-1.180;2022-09-20T07:25:14;5.60;;;4.37;;
14326;SDS011;7247;53.330;-1.180;2022-09-20T07:27:43;6.17;;;4.17;;
14326;SDS011;7247;53.330;-1.180;2022-09-20T07:30:10;5.40;;;3.90;;
14326;SDS011;7247;53.330;-1.180;2022-09-20T07:32:37;6.60;;;4.57;;
14326;SDS011;7247;53.330;-1.180;2022-09-20T07:35:05;5.10;;;4.57;;
14326;SDS011;7247;53.330;-1.180;2022-09-20T07:37:35;7.47;;;4.37;;
14326;SDS011;7247;53.330;-1.180;2022-09-20T07:40:06;7.57;;;4.43;;
14326;SDS011;7247;53.330;-1.180;2022-09-20T07:42:33;5.57;;;4.67;;
14326;SDS011;7247;53.330;-1.180;2022-09-20T07:44:59;6.30;;;4.60;;
14326;SDS011;7247;53.330;-1.180;2022-09-20T07:47:28;8.70;;;4.40;;
14326;SDS011;7247;53.330;-1.180;2022-09-20T07:49:56;6.53;;;4.70;;
14326;SDS011;7247;53.330;-1.180;2022-09-20T07:52:22;7.80;;;4.63;;
14326;SDS011;7247;53.330;-1.180;2022-09-20T07:54:50;6.07;;;4.43;;
14326;SDS011;7247;53.330;-1.180;2022-09-20T07:57:17;5.33;;;4.10;;
14326;SDS011;7247;53.330;-1.180;2022-09-20T07:59:43;5.47;;;4.57;;
14326;SDS011;7247;53.330;-1.180;2022-09-20T08:02:11;5.13;;;4.50;;
14326;SDS011;7247;53.330;-1.180;2022-09-20T08:04:39;7.00;;;4.93;;
14326;SDS011;7247;53.330;-1.180;2022-09-20T08:07:09;4.27;;;3.87;;
14326;SDS011;7247;53.330;-1.180;2022-09-20T08:09:36;6.00;;;4.30;;
14326;SDS011;7247;53.330;-1.180;2022-09-20T08:12:04;5.27;;;3.80;;
14326;SDS011;7247;53.330;-1.180;2022-09-20T08:14:33;4.77;;;4.07;;
14326;SDS011;7247;53.330;-1.180;2022-09-20T08:17:00;5.77;;;3.73;;
14326;SDS011;7247;53.330;-1.180;2022-09-20T08:19:27;4.83;;;3.90;;
14326;SDS011;7247;53.330;-1.180;2022-09-20T08:21:54;5.77;;;4.10;;
14326;SDS011;7247;53.330;-1.180;2022-09-20T08:24:20;5.60;;;4.03;;
14326;SDS011;7247;53.330;-1.180;2022-09-20T08:26:47;7.03;;;4.37;;
14326;SDS011;7247;53.330;-1.180;2022-09-20T08:29:15;5.53;;;4.23;;
14326;SDS011;7247;53.330;-1.180;2022-09-20T08:31:42;6.73;;;4.33;;
14326;SDS011;7247;53.330;-1.180;2022-09-20T08:34:09;7.10;;;3.97;;
14326;SDS011;7247;53.330;-1.180;2022-09-20T08:36:38;4.40;;;3.73;;
14326;SDS011;7247;53.330;-1.180;2022-09-20T08:39:05;5.63;;;4.17;;
14326;SDS011;7247;53.330;-1.180;2022-09-20T08:41:32;5.17;;;4.00;;
14326;SDS011;7247;53.330;-1.180;2022-09-20T08:44:01;6.47;;;4.27;;
14326;SDS011;7247;53.330;-1.180;2022-09-20T08:46:30;6.27;;;4.00;;
14326;SDS011;7247;53.330;-1.180;2022-09-20T08:48:59;6.37;;;4.07;;
14326;SDS011;7247;53.330;-1.180;2022-09-20T08:51:29;6.17;;;4.27;;
14326;SDS011;7247;53.330;-1.180;2022-09-20T08:53:57;5.90;;;4.33;;
14326;SDS011;7247;53.330;-1.180;2022-09-20T08:56:25;6.57;;;4.73;;
14326;SDS011;7247;53.330;-1.180;2022-09-20T08:58:52;6.53;;;4.40;;
14326;SDS011;7247;53.330;-1.180;2022-09-20T09:01:21;6.63;;;4.57;;
14326;SDS011;7247;53.330;-1.180;2022-09-20T09:03:50;6.40;;;3.80;;
14326;SDS011;7247;53.330;-1.180;2022-09-20T09:06:18;6.77;;;4.33;;
14326;SDS011;7247;53.330;-1.180;2022-09-20T09:08:46;8.77;;;5.30;;
14326;SDS011;7247;53.330;-1.180;2022-09-20T09:11:18;5.57;;;4.20;;
14326;SDS011;7247;53.330;-1.180;2022-09-20T09:13:46;7.47;;;4.00;;
14326;SDS011;7247;53.330;-1.180;2022-09-20T09:16:17;5.43;;;4.60;;
14326;SDS011;7247;53.330;-1.180;2022-09-20T09:18:44;6.97;;;4.93;;
14326;SDS011;7247;53.330;-1.180;2022-09-20T09:21:18;6.53;;;4.70;;
14326;SDS011;7247;53.330;-1.180;2022-09-20T09:23:48;6.17;;;4.70;;
14326;SDS011;7247;53.330;-1.180;2022-09-20T09:26:19;7.33;;;4.63;;
14326;SDS011;7247;53.330;-1.180;2022-09-20T09:28:46;7.17;;;4.60;;
14326;SDS011;7247;53.330;-1.180;2022-09-20T09:31:18;7.20;;;4.47;;
14326;SDS011;7247;53.330;-1.180;2022-09-20T09:33:46;7.43;;;4.77;;
14326;SDS011;7247;53.330;-1.180;2022-09-20T09:36:13;7.03;;;4.40;;
14326;SDS011;7247;53.330;-1.180;2022-09-20T09:38:42;5.60;;;3.93;;
14326;SDS011;7247;53.330;-1.180;2022-09-20T09:41:19;5.97;;;3.80;;
14326;SDS011;7247;53.330;-1.180;2022-09-20T09:43:51;4.13;;;3.50;;
14326;SDS011;7247;53.330;-1.180;2022-09-20T09:46:23;3.87;;;3.43;;
14326;SDS011;7247;53.330;-1.180;2022-09-20T09:49:02;4.63;;;3.43;;
14326;SDS011;7247;53.330;-1.180;2022-09-20T09:51:31;3.47;;;2.87;;
14326;SDS011;7247;53.330;-1.180;2022-09-20T09:53:59;5.00;;;3.17;;
14326;SDS011;7247;53.330;-1.180;2022-09-20T09:56:28;3.37;;;3.00;;
14326;SDS011;7247;53.330;-1.180;2022-09-20T09:59:02;3.73;;;3.03;;
14326;SDS011;7247;53.330;-1.180;2022-09-20T10:01:33;3.33;;;3.03;;
14326;SDS011;7247;53.330;-1.180;2022-09-20T10:04:04;3.93;;;3.27;;
14326;SDS011;7247;53.330;-1.180;2022-09-20T10:06:36;3.43;;;3.13;;
14326;SDS011;7247;53.330;-1.180;2022-09-20T10:09:11;3.33;;;2.87;;
14326;SDS011;7247;53.330;-1.180;2022-09-20T10:11:44;4.13;;;3.10;;
14326;SDS011;7247;53.330;-1.180;2022-09-20T10:14:17;3.73;;;3.43;;
14326;SDS011;7247;53.330;-1.180;2022-09-20T10:16:49;4.47;;;3.50;;
14326;SDS011;7247;53.330;-1.180;2022-09-20T10:19:20;6.27;;;3.53;;
14326;SDS011;7247;53.330;-1.180;2022-09-20T10:21:52;3.60;;;3.30;;
14326;SDS011;7247;53.330;-1.180;2022-09-20T10:24:28;4.20;;;3.40;;
14326;SDS011;7247;53.330;-1.180;2022-09-20T10:29:41;4.93;;;3.27;;
14326;SDS011;7247;53.330;-1.180;2022-09-20T10:32:17;3.97;;;3.30;;
14326;SDS011;7247;53.330;-1.180;2022-09-20T10:35:06;3.40;;;3.10;;
14326;SDS011;7247;53.330;-1.180;2022-09-20T10:37:42;4.17;;;3.50;;
14326;SDS011;7247;53.330;-1.180;2022-09-20T10:40:15;3.90;;;3.50;;
14326;SDS011;7247;53.330;-1.180;2022-09-20T10:42:46;5.00;;;3.30;;
14326;SDS011;7247;53.330;-1.180;2022-09-20T10:45:31;4.23;;;3.30;;
14326;SDS011;7247;53.330;-1.180;2022-09-20T10:48:00;4.80;;;4.30;;
14326;SDS011;7247;53.330;-1.180;2022-09-20T10:50:29;5.60;;;4.37;;
14326;SDS011;7247;53.330;-1.180;2022-09-20T10:53:05;5.17;;;4.20;;
14326;SDS011;7247;53.330;-1.180;2022-09-20T10:55:35;4.23;;;3.83;;
14326;SDS011;7247;53.330;-1.180;2022-09-20T11:00:53;5.27;;;4.47;;
14326;SDS011;7247;53.330;-1.180;2022-09-20T11:03:26;6.97;;;4.60;;
14326;SDS011;7247;53.330;-1.180;2022-09-20T11:08:25;4.77;;;4.20;;
14326;SDS011;7247;53.330;-1.180;2022-09-20T11:10:56;4.73;;;4.10;;
14326;SDS011;7247;53.330;-1.180;2022-09-20T11:13:26;4.13;;;3.73;;
14326;SDS011;7247;53.330;-1.180;2022-09-20T11:15:57;4.43;;;4.03;;
14326;SDS011;7247;53.330;-1.180;2022-09-20T11:18:27;5.43;;;3.67;;
14326;SDS011;7247;53.330;-1.180;2022-09-20T11:20:58;5.00;;;4.23;;
14326;SDS011;7247;53.330;-1.180;2022-09-20T11:23:28;5.93;;;4.73;;
14326;SDS011;7247;53.330;-1.180;2022-09-20T11:26:03;8.20;;;5.20;;
14326;SDS011;7247;53.330;-1.180;2022-09-20T11:28:32;7.30;;;4.63;;
14326;SDS011;7247;53.330;-1.180;2022-09-20T11:31:02;4.90;;;4.40;;
14326;SDS011;7247;53.330;-1.180;2022-09-20T11:33:34;4.87;;;4.10;;
14326;SDS011;7247;53.330;-1.180;2022-09-20T11:36:04;6.80;;;4.90;;
14326;SDS011;7247;53.330;-1.180;2022-09-20T11:38:34;6.73;;;5.07;;
14326;SDS011;7247;53.330;-1.180;2022-09-20T11:41:04;6.07;;;4.57;;
14326;SDS011;7247;53.330;-1.180;2022-09-20T11:43:33;6.33;;;5.03;;
14326;SDS011;7247;53.330;-1.180;2022-09-20T11:46:03;5.07;;;4.57;;
14326;SDS011;7247;53.330;-1.180;2022-09-20T11:48:31;6.30;;;4.70;;
14326;SDS011;7247;53.330;-1.180;2022-09-20T11:51:12;6.10;;;4.20;;
14326;SDS011;7247;53.330;-1.180;2022-09-20T11:53:48;7.20;;;5.20;;
14326;SDS011;7247;53.330;-1.180;2022-09-20T11:56:24;7.97;;;5.30;;
14326;SDS011;7247;53.330;-1.180;2022-09-20T11:58:52;6.37;;;4.70;;
14326;SDS011;7247;53.330;-1.180;2022-09-20T12:01:22;7.43;;;4.83;;
14326;SDS011;7247;53.330;-1.180;2022-09-20T12:03:51;8.13;;;5.10;;
14326;SDS011;7247;53.330;-1.180;2022-09-20T12:06:23;6.43;;;4.90;;
14326;SDS011;7247;53.330;-1.180;2022-09-20T12:08:51;5.47;;;4.10;;
14326;SDS011;7247;53.330;-1.180;2022-09-20T12:11:26;6.27;;;4.60;;
14326;SDS011;7247;53.330;-1.180;2022-09-20T12:13:54;5.20;;;4.57;;
14326;SDS011;7247;53.330;-1.180;2022-09-20T12:16:34;5.10;;;4.60;;
14326;SDS011;7247;53.330;-1.180;2022-09-20T12:19:02;6.50;;;5.20;;
14326;SDS011;7247;53.330;-1.180;2022-09-20T12:21:29;8.33;;;5.20;;
14326;SDS011;7247;53.330;-1.180;2022-09-20T12:26:41;4.53;;;4.00;;
14326;SDS011;7247;53.330;-1.180;2022-09-20T12:31:55;5.20;;;4.07;;
14326;SDS011;7247;53.330;-1.180;2022-09-20T12:34:32;6.10;;;3.70;;
14326;SDS011;7247;53.330;-1.180;2022-09-20T12:37:15;4.97;;;3.33;;
14326;SDS011;7247;53.330;-1.180;2022-09-20T12:39:49;3.83;;;3.50;;
14326;SDS011;7247;53.330;-1.180;2022-09-20T12:42:23;3.40;;;2.67;;
14326;SDS011;7247;53.330;-1.180;2022-09-20T12:44:56;3.50;;;2.60;;
14326;SDS011;7247;53.330;-1.180;2022-09-20T12:47:24;2.97;;;2.60;;
14326;SDS011;7247;53.330;-1.180;2022-09-20T12:49:51;4.50;;;2.97;;
14326;SDS011;7247;53.330;-1.180;2022-09-20T12:52:38;3.27;;;2.80;;
14326;SDS011;7247;53.330;-1.180;2022-09-20T12:55:30;3.40;;;3.00;;
14326;SDS011;7247;53.330;-1.180;2022-09-20T12:58:00;3.97;;;3.00;;
14326;SDS011;7247;53.330;-1.180;2022-09-20T13:00:32;3.43;;;3.13;;
14326;SDS011;7247;53.330;-1.180;2022-09-20T13:03:09;2.93;;;2.73;;
14326;SDS011;7247;53.330;-1.180;2022-09-20T13:05:37;3.00;;;2.80;;
14326;SDS011;7247;53.330;-1.180;2022-09-20T13:08:08;3.90;;;2.90;;
14326;SDS011;7247;53.330;-1.180;2022-09-20T13:10:39;3.50;;;3.00;;
14326;SDS011;7247;53.330;-1.180;2022-09-20T13:13:15;4.10;;;3.20;;
14326;SDS011;7247;53.330;-1.180;2022-09-20T13:15:48;3.70;;;3.07;;
14326;SDS011;7247;53.330;-1.180;2022-09-20T13:18:15;4.20;;;3.20;;
14326;SDS011;7247;53.330;-1.180;2022-09-20T13:20:43;5.03;;;3.70;;
14326;SDS011;7247;53.330;-1.180;2022-09-20T13:23:14;6.50;;;3.77;;
14326;SDS011;7247;53.330;-1.180;2022-09-20T13:25:44;5.77;;;3.30;;
14326;SDS011;7247;53.330;-1.180;2022-09-20T13:28:19;6.07;;;3.50;;
14326;SDS011;7247;53.330;-1.180;2022-09-20T13:30:50;6.30;;;4.00;;
14326;SDS011;7247;53.330;-1.180;2022-09-20T13:33:37;5.73;;;4.67;;
14326;SDS011;7247;53.330;-1.180;2022-09-20T13:36:03;5.40;;;3.80;;
14326;SDS011;7247;53.330;-1.180;2022-09-20T13:38:30;4.97;;;4.03;;
14326;SDS011;7247;53.330;-1.180;2022-09-20T13:40:58;5.17;;;3.37;;
14326;SDS011;7247;53.330;-1.180;2022-09-20T13:43:28;4.37;;;2.90;;
14326;SDS011;7247;53.330;-1.180;2022-09-20T13:45:58;4.97;;;2.77;;
14326;SDS011;7247;53.330;-1.180;2022-09-20T13:48:25;3.10;;;2.80;;
14326;SDS011;7247;53.330;-1.180;2022-09-20T13:50:52;3.57;;;3.00;;
14326;SDS011;7247;53.330;-1.180;2022-09-20T13:53:20;4.90;;;3.07;;
14326;SDS011;7247;53.330;-1.180;2022-09-20T13:55:46;4.73;;;2.93;;
14326;SDS011;7247;53.330;-1.180;2022-09-20T13:58:17;4.83;;;4.10;;
14326;SDS011;7247;53.330;-1.180;2022-09-20T14:00:45;6.73;;;3.27;;
14326;SDS011;7247;53.330;-1.180;2022-09-20T14:03:15;3.13;;;2.70;;
14326;SDS011;7247;53.330;-1.180;2022-09-20T14:05:44;4.43;;;2.87;;
14326;SDS011;7247;53.330;-1.180;2022-09-20T14:08:20;3.03;;;2.73;;
14326;SDS011;7247;53.330;-1.180;2022-09-20T14:10:47;4.87;;;2.80;;
14326;SDS011;7247;53.330;-1.180;2022-09-20T14:13:15;4.10;;;2.77;;
14326;SDS011;7247;53.330;-1.180;2022-09-20T14:15:42;3.20;;;2.90;;
14326;SDS011;7247;53.330;-1.180;2022-09-20T14:18:12;5.73;;;3.40;;
14326;SDS011;7247;53.330;-1.180;2022-09-20T14:20:41;4.80;;;3.30;;
14326;SDS011;7247;53.330;-1.180;2022-09-20T14:23:15;4.53;;;3.00;;
14326;SDS011;7247;53.330;-1.180;2022-09-20T14:28:26;3.67;;;3.33;;
14326;SDS011;7247;53.330;-1.180;2022-09-20T14:31:02;3.90;;;3.50;;
14326;SDS011;7247;53.330;-1.180;2022-09-20T14:33:29;4.70;;;3.27;;
14326;SDS011;7247;53.330;-1.180;2022-09-20T14:35:59;5.43;;;3.30;;
14326;SDS011;7247;53.330;-1.180;2022-09-20T14:38:26;5.20;;;3.30;;
14326;SDS011;7247;53.330;-1.180;2022-09-20T14:40:52;6.43;;;4.10;;
14326;SDS011;7247;53.330;-1.180;2022-09-20T14:43:24;3.97;;;3.43;;
14326;SDS011;7247;53.330;-1.180;2022-09-20T14:45:54;5.63;;;3.40;;
14326;SDS011;7247;53.330;-1.180;2022-09-20T14:48:31;5.00;;;3.40;;
14326;SDS011;7247;53.330;-1.180;2022-09-20T14:51:10;3.73;;;3.10;;
14326;SDS011;7247;53.330;-1.180;2022-09-20T14:53:38;4.43;;;2.80;;
14326;SDS011;7247;53.330;-1.180;2022-09-20T14:56:09;4.10;;;3.00;;
14326;SDS011;7247;53.330;-1.180;2022-09-20T15:01:22;6.53;;;4.97;;
14326;SDS011;7247;53.330;-1.180;2022-09-20T15:03:49;5.30;;;4.30;;
14326;SDS011;7247;53.330;-1.180;2022-09-20T15:06:17;3.90;;;3.43;;
14326;SDS011;7247;53.330;-1.180;2022-09-20T15:08:44;7.03;;;3.43;;
14326;SDS011;7247;53.330;-1.180;2022-09-20T15:11:11;9.17;;;4.63;;
14326;SDS011;7247;53.330;-1.180;2022-09-20T15:13:38;3.90;;;3.50;;
14326;SDS011;7247;53.330;-1.180;2022-09-20T15:16:05;8.03;;;3.43;;
14326;SDS011;7247;53.330;-1.180;2022-09-20T15:18:33;5.37;;;2.87;;
14326;SDS011;7247;53.330;-1.180;2022-09-20T15:21:00;3.13;;;2.77;;
14326;SDS011;7247;53.330;-1.180;2022-09-20T15:23:28;5.13;;;3.00;;
14326;SDS011;7247;53.330;-1.180;2022-09-20T15:25:55;4.00;;;3.20;;
14326;SDS011;7247;53.330;-1.180;2022-09-20T15:28:21;3.37;;;2.90;;
14326;SDS011;7247;53.330;-1.180;2022-09-20T15:30:49;4.97;;;3.00;;
14326;SDS011;7247;53.330;-1.180;2022-09-20T15:33:15;7.47;;;3.00;;
14326;SDS011;7247;53.330;-1.180;2022-09-20T15:35:42;4.30;;;3.10;;
14326;SDS011;7247;53.330;-1.180;2022-09-20T15:38:09;3.30;;;2.73;;
14326;SDS011;7247;53.330;-1.180;2022-09-20T15:40:38;3.37;;;3.03;;
14326;SDS011;7247;53.330;-1.180;2022-09-20T15:43:05;11.63;;;4.20;;
14326;SDS011;7247;53.330;-1.180;2022-09-20T15:45:33;6.00;;;3.40;;
14326;SDS011;7247;53.330;-1.180;2022-09-20T15:48:00;5.07;;;3.40;;
14326;SDS011;7247;53.330;-1.180;2022-09-20T15:50:27;15.77;;;4.30;;
14326;SDS011;7247;53.330;-1.180;2022-09-20T15:52:54;7.67;;;3.30;;
14326;SDS011;7247;53.330;-1.180;2022-09-20T15:55:22;5.40;;;3.27;;
14326;SDS011;7247;53.330;-1.180;2022-09-20T15:57:50;3.37;;;3.00;;
14326;SDS011;7247;53.330;-1.180;2022-09-20T16:00:16;4.03;;;3.10;;
14326;SDS011;7247;53.330;-1.180;2022-09-20T16:02:47;3.80;;;3.00;;
14326;SDS011;7247;53.330;-1.180;2022-09-20T16:05:13;3.23;;;2.87;;
14326;SDS011;7247;53.330;-1.180;2022-09-20T16:07:40;6.60;;;3.50;;